createdAt,value
2023-03-23T15:57:59.686Z,23.40
2023-03-23T16:03:06.155Z,23.60
2023-03-23T16:08:13.121Z,23.60
2023-03-23T16:13:16.007Z,23.70
2023-03-23T16:18:21.410Z,23.70
2023-03-23T16:23:25.776Z,23.70
2023-03-23T16:28:28.627Z,23.60
2023-03-23T16:33:31.684Z,23.60
2023-03-23T16:38:49.691Z,23.60
2023-03-23T16:43:53.909Z,23.60
2023-03-23T16:48:56.939Z,23.60
2023-03-23T16:54:01.135Z,23.60
2023-03-23T16:59:03.974Z,23.60
2023-03-23T17:04:07.018Z,23.60
2023-03-23T17:09:11.274Z,23.50
2023-03-23T17:14:14.114Z,23.50
2023-03-23T17:19:16.989Z,23.40
2023-03-23T17:24:22.315Z,23.50
2023-03-23T17:29:25.258Z,23.60
2023-03-23T17:34:28.140Z,23.70
2023-03-23T17:39:32.985Z,23.90
2023-03-23T17:44:46.280Z,24.40
2023-03-23T17:49:49.101Z,24.80
2023-03-23T17:54:53.940Z,25.10
2023-03-23T17:59:56.792Z,25.30
2023-03-23T18:05:00.697Z,25.50
2023-03-23T18:10:11.564Z,25.60
2023-03-23T18:15:14.390Z,25.70
2023-03-23T18:20:17.736Z,25.80
2023-03-23T18:25:21.995Z,25.80
2023-03-23T18:30:26.801Z,25.90
2023-03-23T18:35:29.777Z,25.90
2023-03-23T18:40:34.085Z,25.90
2023-03-23T18:45:37.690Z,25.90
2023-03-23T18:50:40.571Z,25.90
2023-03-23T18:55:46.602Z,25.90
2023-03-23T19:00:49.895Z,25.90
2023-03-23T19:05:53.659Z,26.00
2023-03-23T19:11:01.104Z,26.20
2023-03-23T19:16:05.767Z,26.30
2023-03-23T19:21:13.031Z,26.40
2023-03-23T19:26:25.793Z,26.60
2023-03-23T19:31:29.689Z,26.60
2023-03-23T19:36:32.867Z,26.70
2023-03-23T19:41:37.471Z,26.80
2023-03-23T19:46:40.309Z,26.90
2023-03-23T19:51:43.173Z,26.90
2023-03-23T19:56:47.905Z,26.90
2023-03-23T20:01:51.677Z,26.90
2023-03-23T20:06:57.152Z,26.90
2023-03-23T20:12:01.396Z,27.00
2023-03-23T20:17:05.655Z,26.90
2023-03-23T20:22:09.024Z,26.90
2023-03-23T20:27:13.551Z,26.90
2023-03-23T20:32:16.407Z,26.90
2023-03-23T20:37:20.726Z,26.90
2023-03-23T20:42:24.978Z,26.90
2023-03-23T20:47:28.557Z,26.90
2023-03-23T20:52:31.825Z,26.90
2023-03-23T20:57:38.230Z,27.00
2023-03-23T21:02:42.212Z,27.00
2023-03-23T21:07:45.143Z,26.90
2023-03-23T21:12:49.457Z,26.90
2023-03-23T21:17:52.761Z,27.00
2023-03-23T21:22:55.777Z,26.90
2023-03-23T21:28:00.050Z,26.90
2023-03-23T21:33:02.914Z,27.00
2023-03-23T21:38:06.032Z,27.00
2023-03-23T21:43:14.682Z,26.90
2023-03-23T21:48:17.538Z,26.90
2023-03-23T21:53:20.633Z,26.80
2023-03-23T21:58:27.503Z,26.80
2023-03-23T22:03:32.349Z,26.70
2023-03-23T22:08:35.400Z,26.60
2023-03-23T22:13:40.716Z,26.60
2023-03-23T22:18:45.149Z,26.60
2023-03-23T22:23:47.991Z,26.50
2023-03-23T22:28:52.769Z,26.50
2023-03-23T22:33:57.257Z,26.40
2023-03-23T22:39:01.266Z,26.30
2023-03-23T22:44:06.148Z,26.30
2023-03-23T22:49:09.028Z,26.20
2023-03-23T22:54:12.343Z,26.10
2023-03-23T22:59:16.711Z,26.00
2023-03-23T23:04:19.607Z,25.90
2023-03-23T23:09:22.706Z,25.90
2023-03-23T23:14:27.419Z,25.80
2023-03-23T23:19:30.305Z,25.80
2023-03-23T23:24:33.638Z,25.80
2023-03-23T23:29:38.417Z,25.70
2023-03-23T23:34:41.506Z,25.60
2023-03-23T23:39:44.373Z,25.50
2023-03-23T23:44:48.565Z,25.50
2023-03-23T23:49:51.486Z,25.40
2023-03-23T23:54:54.302Z,25.40
2023-03-23T23:59:58.529Z,25.40
